createdAt,value
2019-01-21T00:02:00.273Z,6.50
2019-01-21T00:04:29.558Z,6.47
2019-01-21T00:06:58.695Z,6.90
2019-01-21T00:09:28.003Z,6.60
2019-01-21T00:11:57.299Z,6.87
2019-01-21T00:14:26.623Z,6.80
2019-01-21T00:16:55.940Z,6.70
2019-01-21T00:19:25.203Z,6.63
2019-01-21T00:21:54.407Z,6.70
2019-01-21T00:24:23.644Z,6.57
2019-01-21T00:26:52.955Z,6.50
2019-01-21T00:29:22.209Z,6.90
2019-01-21T00:31:51.419Z,7.03
2019-01-21T00:34:20.643Z,6.50
2019-01-21T00:36:49.795Z,6.83
2019-01-21T00:39:18.986Z,6.30
2019-01-21T00:41:48.328Z,7.00
2019-01-21T00:44:17.511Z,6.63
2019-01-21T00:46:46.794Z,6.20
2019-01-21T00:49:15.997Z,6.57
2019-01-21T00:51:45.223Z,7.03
2019-01-21T00:54:14.487Z,6.77
2019-01-21T00:56:43.679Z,6.70
2019-01-21T00:59:12.949Z,6.50
2019-01-21T01:01:42.170Z,6.30
2019-01-21T01:04:11.459Z,6.50
2019-01-21T01:06:40.644Z,6.80
2019-01-21T01:09:09.963Z,6.57
2019-01-21T01:11:40.617Z,7.07
2019-01-21T01:14:09.791Z,6.50
2019-01-21T01:16:39.009Z,6.53
2019-01-21T01:19:08.236Z,6.40
2019-01-21T01:21:37.500Z,6.37
2019-01-21T01:24:06.766Z,6.53
2019-01-21T01:26:36.009Z,6.80
2019-01-21T01:29:05.247Z,6.70
2019-01-21T01:31:34.521Z,6.67
2019-01-21T01:34:03.803Z,6.57
2019-01-21T01:36:32.976Z,6.57
2019-01-21T01:39:02.172Z,6.73
2019-01-21T01:41:31.370Z,7.10
2019-01-21T01:44:06.021Z,7.40
2019-01-21T01:46:35.181Z,6.27
2019-01-21T01:49:04.378Z,6.57
2019-01-21T01:51:33.700Z,6.50
2019-01-21T01:54:05.960Z,6.23
2019-01-21T01:56:35.370Z,6.70
2019-01-21T01:59:07.681Z,6.70
2019-01-21T02:01:36.934Z,6.73
2019-01-21T02:04:06.200Z,6.50
2019-01-21T02:06:35.463Z,7.03
2019-01-21T02:09:06.652Z,6.93
2019-01-21T02:11:36.131Z,6.30
2019-01-21T02:14:05.307Z,6.77
2019-01-21T02:16:34.603Z,7.23
2019-01-21T02:19:03.922Z,7.20
2019-01-21T02:21:33.676Z,7.03
2019-01-21T02:24:07.156Z,6.73
2019-01-21T02:26:42.418Z,6.53
2019-01-21T02:29:43.168Z,6.43
2019-01-21T02:32:41.248Z,6.50
2019-01-21T02:35:43.824Z,6.23
2019-01-21T02:38:39.147Z,6.87
2019-01-21T02:41:53.987Z,6.67
2019-01-21T02:45:22.278Z,6.60
2019-01-21T02:48:23.947Z,7.10
2019-01-21T02:51:32.980Z,6.63
2019-01-21T02:54:38.122Z,6.63
2019-01-21T02:57:51.229Z,6.80
2019-01-21T03:00:45.778Z,7.30
2019-01-21T03:03:56.266Z,7.70
2019-01-21T03:06:42.501Z,7.80
2019-01-21T03:09:40.334Z,6.77
2019-01-21T03:12:45.062Z,6.90
2019-01-21T03:15:45.066Z,6.50
2019-01-21T03:18:47.015Z,6.37
2019-01-21T03:21:52.381Z,7.63
2019-01-21T03:24:53.036Z,7.27
2019-01-21T03:28:00.765Z,7.30
2019-01-21T03:31:17.393Z,7.10
2019-01-21T03:34:24.911Z,6.60
2019-01-21T03:37:37.638Z,7.10
2019-01-21T03:41:03.306Z,6.63
2019-01-21T03:44:13.656Z,7.20
2019-01-21T03:46:58.590Z,7.20
2019-01-21T03:49:37.333Z,6.87
2019-01-21T03:52:37.552Z,6.97
2019-01-21T03:55:11.148Z,7.37
2019-01-21T03:58:05.684Z,6.90
2019-01-21T04:00:44.960Z,7.00
2019-01-21T04:03:32.498Z,7.03
2019-01-21T04:06:28.866Z,7.77
2019-01-21T04:09:23.016Z,6.77
2019-01-21T04:12:32.340Z,7.03
2019-01-21T04:15:30.119Z,7.17
2019-01-21T04:18:08.905Z,7.10
2019-01-21T04:21:07.187Z,6.60
2019-01-21T04:24:31.107Z,6.83
2019-01-21T04:27:14.201Z,7.20
2019-01-21T04:30:30.367Z,7.47
2019-01-21T04:33:39.594Z,7.03
2019-01-21T04:36:52.840Z,6.70
2019-01-21T04:39:47.158Z,6.60
2019-01-21T04:42:50.433Z,7.17
2019-01-21T04:45:46.493Z,6.67
2019-01-21T04:48:48.084Z,7.00
2019-01-21T04:51:34.178Z,7.17
2019-01-21T04:54:51.377Z,7.27
2019-01-21T04:58:11.443Z,7.57
2019-01-21T05:01:03.613Z,7.27
2019-01-21T05:04:06.999Z,6.90
2019-01-21T05:07:32.283Z,7.10
2019-01-21T05:10:38.150Z,7.43
2019-01-21T05:13:52.223Z,7.17
2019-01-21T05:17:04.522Z,7.97
2019-01-21T05:19:58.889Z,6.97
2019-01-21T05:22:56.075Z,6.80
2019-01-21T05:25:38.482Z,7.00
2019-01-21T05:28:55.145Z,7.20
2019-01-21T05:32:06.733Z,7.80
2019-01-21T05:35:05.076Z,7.30
2019-01-21T05:38:04.295Z,7.70
2019-01-21T05:41:05.602Z,7.63
2019-01-21T05:44:01.950Z,7.60
2019-01-21T05:47:02.450Z,6.90
2019-01-21T05:50:16.506Z,7.70
2019-01-21T05:53:02.101Z,8.13
2019-01-21T05:55:51.027Z,8.27
2019-01-21T05:59:07.609Z,7.10
2019-01-21T06:02:42.344Z,7.20
2019-01-21T06:05:35.121Z,8.30
2019-01-21T06:08:33.301Z,7.43
2019-01-21T06:11:15.267Z,7.10
2019-01-21T06:14:06.893Z,7.13
2019-01-21T06:17:20.960Z,8.03
2019-01-21T06:20:11.231Z,7.70
2019-01-21T06:23:07.015Z,8.27
2019-01-21T06:26:13.531Z,7.33
2019-01-21T06:29:26.783Z,7.90
2019-01-21T06:32:27.061Z,7.60
2019-01-21T06:35:46.401Z,7.53
2019-01-21T06:38:50.403Z,7.80
2019-01-21T06:41:55.917Z,8.00
2019-01-21T06:44:45.806Z,7.30
2019-01-21T06:47:50.178Z,7.50
2019-01-21T06:50:37.651Z,7.47
2019-01-21T06:53:33.398Z,7.23
2019-01-21T06:56:38.856Z,7.37
2019-01-21T06:59:36.775Z,7.60
2019-01-21T07:02:14.797Z,7.80
2019-01-21T07:05:08.889Z,6.70
2019-01-21T07:08:03.941Z,7.07
2019-01-21T07:11:17.004Z,7.30
2019-01-21T07:14:19.742Z,7.07
2019-01-21T07:17:28.341Z,7.53
2019-01-21T07:20:34.612Z,7.50
2019-01-21T07:23:34.031Z,7.80
2019-01-21T07:26:34.122Z,7.27
2019-01-21T07:29:30.858Z,7.40
2019-01-21T07:32:16.965Z,7.50
2019-01-21T07:35:00.224Z,7.20
2019-01-21T07:37:39.795Z,6.73
2019-01-21T07:40:47.648Z,7.23
2019-01-21T07:43:46.652Z,7.13
2019-01-21T07:46:53.141Z,6.73
2019-01-21T07:49:59.785Z,6.47
2019-01-21T07:53:13.422Z,8.00
2019-01-21T07:56:25.103Z,7.37
2019-01-21T07:59:38.281Z,7.30
2019-01-21T08:02:47.316Z,6.83
2019-01-21T08:05:57.703Z,7.50
2019-01-21T08:09:17.513Z,7.23
2019-01-21T08:12:36.257Z,7.40
2019-01-21T08:15:54.237Z,7.33
2019-01-21T08:19:03.228Z,7.40
2019-01-21T08:22:19.855Z,7.53
2019-01-21T08:25:16.039Z,7.20
2019-01-21T08:28:02.125Z,6.70
2019-01-21T08:31:00.216Z,7.03
2019-01-21T08:34:06.775Z,6.50
2019-01-21T08:37:28.947Z,6.70
2019-01-21T08:40:35.309Z,6.70
2019-01-21T08:43:42.897Z,6.80
2019-01-21T08:46:55.303Z,7.57
2019-01-21T08:50:10.981Z,6.23
2019-01-21T08:52:58.930Z,6.27
2019-01-21T08:56:05.399Z,6.80
2019-01-21T08:58:56.578Z,6.37
2019-01-21T09:02:04.171Z,7.03
2019-01-21T09:04:51.840Z,7.07
2019-01-21T09:07:57.813Z,6.70
2019-01-21T09:11:20.105Z,6.70
2019-01-21T09:14:11.614Z,6.70
2019-01-21T09:17:04.449Z,6.57
2019-01-21T09:20:15.430Z,6.33
2019-01-21T09:23:01.053Z,6.67
2019-01-21T09:26:17.451Z,6.73
2019-01-21T09:29:33.154Z,6.33
2019-01-21T09:32:40.717Z,6.27
2019-01-21T09:35:52.657Z,6.60
2019-01-21T09:39:21.405Z,6.30
2019-01-21T09:42:09.738Z,6.70
2019-01-21T09:44:49.403Z,6.50
2019-01-21T09:47:17.163Z,6.70
2019-01-21T09:49:46.317Z,6.43
2019-01-21T09:52:18.262Z,7.03
2019-01-21T09:54:47.439Z,6.23
2019-01-21T09:57:26.721Z,6.63
2019-01-21T10:00:00.207Z,6.40
2019-01-21T10:02:42.651Z,6.40
2019-01-21T10:05:15.983Z,7.00
2019-01-21T10:08:24.194Z,6.90
2019-01-21T10:11:26.302Z,6.67
2019-01-21T10:14:44.759Z,5.80
2019-01-21T10:17:20.904Z,6.03
2019-01-21T10:20:34.031Z,6.20
2019-01-21T10:23:33.773Z,6.10
2019-01-21T10:26:37.452Z,6.20
2019-01-21T10:29:17.125Z,6.70
2019-01-21T10:32:28.495Z,6.20
2019-01-21T10:35:30.745Z,6.13
2019-01-21T10:38:36.246Z,5.90
2019-01-21T10:41:55.677Z,6.03
2019-01-21T10:44:46.286Z,6.53
2019-01-21T10:47:52.222Z,6.13
2019-01-21T10:50:58.409Z,6.43
2019-01-21T10:53:59.259Z,6.40
2019-01-21T10:57:04.519Z,6.47
2019-01-21T11:00:38.890Z,6.57
2019-01-21T11:04:07.163Z,6.17
2019-01-21T11:07:32.704Z,5.93
2019-01-21T11:10:31.044Z,6.57
2019-01-21T11:13:35.746Z,6.47
2019-01-21T11:16:33.056Z,6.37
2019-01-21T11:19:35.617Z,6.23
2019-01-21T11:22:18.574Z,6.23
2019-01-21T11:25:16.579Z,7.70
2019-01-21T11:28:16.019Z,7.47
2019-01-21T11:31:02.594Z,7.63
2019-01-21T11:34:08.789Z,7.60
2019-01-21T11:37:00.095Z,7.90
2019-01-21T11:39:46.479Z,10.37
2019-01-21T11:42:44.628Z,10.63
2019-01-21T11:46:07.412Z,10.23
2019-01-21T11:49:39.062Z,8.23
2019-01-21T11:53:04.236Z,12.33
2019-01-21T11:56:02.676Z,10.37
2019-01-21T11:58:47.310Z,10.67
2019-01-21T12:01:59.153Z,11.30
2019-01-21T12:05:08.554Z,9.07
2019-01-21T12:08:30.711Z,8.63
2019-01-21T12:11:50.630Z,9.33
2019-01-21T12:15:01.240Z,9.30
2019-01-21T12:18:20.664Z,8.40
2019-01-21T12:21:46.616Z,8.77
2019-01-21T12:24:42.866Z,8.43
2019-01-21T12:27:58.899Z,8.33
2019-01-21T12:30:41.925Z,9.17
2019-01-21T12:33:55.225Z,8.23
2019-01-21T12:36:48.718Z,9.03
2019-01-21T12:39:58.544Z,8.47
2019-01-21T12:43:21.219Z,8.10
2019-01-21T12:46:39.570Z,7.63
2019-01-21T12:49:45.802Z,8.10
2019-01-21T12:52:46.136Z,8.00
2019-01-21T12:56:05.630Z,8.13
2019-01-21T12:59:15.846Z,8.57
2019-01-21T13:01:55.215Z,9.00
2019-01-21T13:04:40.802Z,7.73
2019-01-21T13:07:34.107Z,7.87
2019-01-21T13:10:38.973Z,7.90
2019-01-21T13:14:05.716Z,7.70
2019-01-21T13:17:25.078Z,7.70
2019-01-21T13:20:38.678Z,7.80
2019-01-21T13:23:17.716Z,7.47
2019-01-21T13:26:10.394Z,7.57
2019-01-21T13:29:09.276Z,7.23
2019-01-21T13:32:26.027Z,7.53
2019-01-21T13:35:21.082Z,7.17
2019-01-21T13:38:03.950Z,7.30
2019-01-21T13:41:14.669Z,8.27
2019-01-21T13:44:43.868Z,7.73
2019-01-21T13:48:06.312Z,7.50
2019-01-21T13:51:34.750Z,8.40
2019-01-21T13:54:21.686Z,6.43
2019-01-21T13:57:19.412Z,7.47
2019-01-21T14:00:13.009Z,7.20
2019-01-21T14:03:02.742Z,7.80
2019-01-21T14:05:56.072Z,7.37
2019-01-21T14:08:44.876Z,7.33
2019-01-21T14:11:47.854Z,7.07
2019-01-21T14:14:43.005Z,7.17
2019-01-21T14:17:26.877Z,7.73
2019-01-21T14:20:43.721Z,6.77
2019-01-21T14:24:06.058Z,8.57
2019-01-21T14:27:22.958Z,9.50
2019-01-21T14:30:12.632Z,8.33
2019-01-21T14:33:31.500Z,8.00
2019-01-21T14:36:21.297Z,7.60
2019-01-21T14:39:24.385Z,7.60
2019-01-21T14:42:34.617Z,7.67
2019-01-21T14:45:38.031Z,7.50
2019-01-21T14:48:35.457Z,7.77
2019-01-21T14:51:28.908Z,7.47
2019-01-21T14:54:15.103Z,7.33
2019-01-21T14:57:26.640Z,7.80
2019-01-21T15:00:09.078Z,7.43
2019-01-21T15:03:00.371Z,7.87
2019-01-21T15:05:59.236Z,7.73
2019-01-21T15:08:38.010Z,7.87
2019-01-21T15:11:42.462Z,8.30
2019-01-21T15:14:38.165Z,7.07
2019-01-21T15:17:17.988Z,7.50
2019-01-21T15:20:02.160Z,7.80
2019-01-21T15:23:24.790Z,6.90
2019-01-21T15:26:18.720Z,7.30
2019-01-21T15:29:31.218Z,8.60
2019-01-21T15:32:47.709Z,7.50
2019-01-21T15:35:43.851Z,7.67
2019-01-21T15:38:42.357Z,8.03
2019-01-21T15:41:38.756Z,7.33
2019-01-21T15:44:24.134Z,7.63
2019-01-21T15:47:27.999Z,7.40
2019-01-21T15:50:27.659Z,8.53
2019-01-21T15:53:38.208Z,7.50
2019-01-21T15:56:29.566Z,7.40
2019-01-21T15:59:15.719Z,7.27
2019-01-21T16:02:23.137Z,7.10
2019-01-21T16:05:30.079Z,6.90
2019-01-21T16:08:17.261Z,7.47
2019-01-21T16:11:14.630Z,7.80
2019-01-21T16:13:57.097Z,7.63
2019-01-21T16:16:38.877Z,7.43
2019-01-21T16:19:15.053Z,7.43
2019-01-21T16:22:17.931Z,7.47
2019-01-21T16:25:04.337Z,7.53
2019-01-21T16:28:01.921Z,7.73
2019-01-21T16:30:47.059Z,8.00
2019-01-21T16:33:48.913Z,8.40
2019-01-21T16:36:36.853Z,8.00
2019-01-21T16:39:31.113Z,8.80
2019-01-21T16:42:13.763Z,8.80
2019-01-21T16:44:44.067Z,9.17
2019-01-21T16:47:13.262Z,10.03
2019-01-21T16:49:42.469Z,11.20
2019-01-21T16:52:13.167Z,10.37
2019-01-21T16:54:42.435Z,12.30
2019-01-21T16:57:11.678Z,13.03
2019-01-21T16:59:40.910Z,11.27
2019-01-21T17:02:10.183Z,10.60
2019-01-21T17:04:39.484Z,12.67
2019-01-21T17:07:08.724Z,10.73
2019-01-21T17:09:37.975Z,11.07
2019-01-21T17:12:07.143Z,13.33
2019-01-21T17:14:36.333Z,12.13
2019-01-21T17:17:05.472Z,12.73
2019-01-21T17:19:34.621Z,11.87
2019-01-21T17:22:03.851Z,10.73
2019-01-21T17:24:33.140Z,15.53
2019-01-21T17:27:02.380Z,11.67
2019-01-21T17:29:31.610Z,10.23
2019-01-21T17:32:00.856Z,10.20
2019-01-21T17:34:30.118Z,10.70
2019-01-21T17:36:59.416Z,11.97
2019-01-21T17:39:28.642Z,11.43
2019-01-21T17:41:57.880Z,10.23
2019-01-21T17:44:27.260Z,10.77
2019-01-21T17:46:56.584Z,13.37
2019-01-21T17:49:26.202Z,11.80
2019-01-21T17:51:55.499Z,12.40
2019-01-21T17:54:24.726Z,10.20
2019-01-21T17:56:54.019Z,13.63
2019-01-21T17:59:23.330Z,13.20
2019-01-21T18:01:52.547Z,11.03
2019-01-21T18:04:21.858Z,10.30
2019-01-21T18:06:53.266Z,10.10
2019-01-21T18:09:22.506Z,10.20
2019-01-21T18:11:51.801Z,10.40
2019-01-21T18:14:21.070Z,9.10
2019-01-21T18:16:50.440Z,12.30
2019-01-21T18:19:19.749Z,10.27
2019-01-21T18:21:49.230Z,10.67
2019-01-21T18:24:18.918Z,10.50
2019-01-21T18:26:48.294Z,9.83
2019-01-21T18:29:17.580Z,10.43
2019-01-21T18:31:46.922Z,10.17
2019-01-21T18:34:16.766Z,10.57
2019-01-21T18:36:46.120Z,9.17
2019-01-21T18:39:15.562Z,10.47
2019-01-21T18:41:44.868Z,10.27
2019-01-21T18:44:15.246Z,9.80
2019-01-21T18:46:44.963Z,11.27
2019-01-21T18:49:14.692Z,10.50
2019-01-21T18:51:46.753Z,12.60
2019-01-21T18:54:15.026Z,9.97
2019-01-21T18:56:44.314Z,9.50
2019-01-21T18:59:14.070Z,9.50
2019-01-21T19:01:44.533Z,11.53
2019-01-21T19:04:13.880Z,10.23
2019-01-21T19:06:43.482Z,9.80
2019-01-21T19:09:13.197Z,9.87
2019-01-21T19:11:42.824Z,12.07
2019-01-21T19:14:12.105Z,9.13
2019-01-21T19:16:41.490Z,10.70
2019-01-21T19:19:10.811Z,9.83
2019-01-21T19:21:40.406Z,9.27
2019-01-21T19:24:12.768Z,9.67
2019-01-21T19:26:43.867Z,9.70
2019-01-21T19:29:14.176Z,10.87
2019-01-21T19:31:43.518Z,9.90
2019-01-21T19:34:13.140Z,9.87
2019-01-21T19:36:42.410Z,10.00
2019-01-21T19:39:11.808Z,9.23
2019-01-21T19:41:42.618Z,8.90
2019-01-21T19:44:13.734Z,10.87
2019-01-21T19:46:47.391Z,9.77
2019-01-21T19:49:16.700Z,9.73
2019-01-21T19:51:46.510Z,9.20
2019-01-21T19:54:15.856Z,9.83
2019-01-21T19:56:45.751Z,9.70
2019-01-21T19:59:16.262Z,9.67
2019-01-21T20:01:45.955Z,10.33
2019-01-21T20:04:15.668Z,9.80
2019-01-21T20:06:47.313Z,10.03
2019-01-21T20:09:16.747Z,10.67
2019-01-21T20:11:46.928Z,24.47
2019-01-21T20:14:18.575Z,18.53
2019-01-21T20:16:47.958Z,17.63
2019-01-21T20:19:18.598Z,17.13
2019-01-21T20:21:47.958Z,14.40
2019-01-21T20:24:18.434Z,14.57
2019-01-21T20:26:48.928Z,13.93
2019-01-21T20:29:23.081Z,14.37
2019-01-21T20:31:52.396Z,14.27
2019-01-21T20:34:27.955Z,14.67
2019-01-21T20:36:57.276Z,15.07
2019-01-21T20:39:32.328Z,13.63
2019-01-21T20:42:01.951Z,13.27
2019-01-21T20:44:32.300Z,13.67
2019-01-21T20:47:01.818Z,13.33
2019-01-21T20:49:41.033Z,17.83
2019-01-21T20:52:14.164Z,14.87
2019-01-21T20:54:41.702Z,15.23
2019-01-21T20:57:11.531Z,13.80
2019-01-21T20:59:40.880Z,14.20
2019-01-21T21:02:10.242Z,12.40
2019-01-21T21:04:39.608Z,13.93
2019-01-21T21:07:10.972Z,13.43
2019-01-21T21:09:48.696Z,14.83
2019-01-21T21:12:18.086Z,14.13
2019-01-21T21:14:48.122Z,13.20
2019-01-21T21:17:23.847Z,13.47
2019-01-21T21:19:56.024Z,12.90
2019-01-21T21:22:25.762Z,13.57
2019-01-21T21:24:56.108Z,14.83
2019-01-21T21:27:27.180Z,16.13
2019-01-21T21:29:56.472Z,15.53
2019-01-21T21:32:26.437Z,13.90
2019-01-21T21:34:56.053Z,16.03
2019-01-21T21:37:25.854Z,17.27
2019-01-21T21:39:55.379Z,13.87
2019-01-21T21:42:25.111Z,14.67
2019-01-21T21:44:54.354Z,14.40
2019-01-21T21:47:23.773Z,14.40
2019-01-21T21:49:53.168Z,13.27
2019-01-21T21:52:27.814Z,13.67
2019-01-21T21:54:53.852Z,13.93
2019-01-21T21:57:23.148Z,13.70
2019-01-21T21:59:52.459Z,13.57
2019-01-21T22:02:21.800Z,21.97
2019-01-21T22:04:51.461Z,14.00
2019-01-21T22:07:20.732Z,13.53
2019-01-21T22:09:51.488Z,13.17
2019-01-21T22:12:20.824Z,14.43
2019-01-21T22:14:50.094Z,13.10
2019-01-21T22:17:19.806Z,15.07
2019-01-21T22:19:49.105Z,14.93
2019-01-21T22:22:18.364Z,15.87
2019-01-21T22:24:47.665Z,13.40
2019-01-21T22:27:20.204Z,12.77
2019-01-21T22:29:49.805Z,12.53
2019-01-21T22:32:19.098Z,12.90
2019-01-21T22:34:48.362Z,13.00
2019-01-21T22:37:17.588Z,13.00
2019-01-21T22:39:46.894Z,12.77
2019-01-21T22:42:16.438Z,12.53
2019-01-21T22:44:45.716Z,12.77
2019-01-21T22:47:15.013Z,13.10
2019-01-21T22:49:44.283Z,13.33
2019-01-21T22:52:15.189Z,12.70
2019-01-21T22:54:44.762Z,11.67
2019-01-21T22:57:13.963Z,12.63
2019-01-21T22:59:43.271Z,12.47
2019-01-21T23:02:12.562Z,11.97
2019-01-21T23:04:41.690Z,12.50
2019-01-21T23:07:11.019Z,12.30
2019-01-21T23:09:40.291Z,12.10
2019-01-21T23:12:09.589Z,12.17
2019-01-21T23:14:40.925Z,12.30
2019-01-21T23:17:10.237Z,11.93
2019-01-21T23:19:39.471Z,11.63
2019-01-21T23:22:08.745Z,11.40
2019-01-21T23:24:37.997Z,11.83
2019-01-21T23:27:07.230Z,11.57
2019-01-21T23:29:36.465Z,11.63
2019-01-21T23:32:05.777Z,11.40
2019-01-21T23:34:35.037Z,11.53
2019-01-21T23:37:04.137Z,11.80
2019-01-21T23:39:35.791Z,10.97
2019-01-21T23:42:05.042Z,11.10
2019-01-21T23:44:34.318Z,12.00
2019-01-21T23:47:03.612Z,11.80
2019-01-21T23:49:32.843Z,12.03
2019-01-21T23:52:02.105Z,11.97
2019-01-21T23:54:31.320Z,11.03
2019-01-21T23:57:00.566Z,11.10
2019-01-21T23:59:30.055Z,10.93
